Main page
METAR-TAF:

METAR-TAF

Airports :

Cachimbo Airport

Cachimbo, Pará, Brazil

latitude: 09-20S, longitude: 054-57W, elevation: 536 m

Current weather observation

The report was made 7 hours and 14 minutes ago, at 21:00 UTC
Wind 4 kt from the Northwest
Temperature 30°C
Humidity 40%
Pressure 1010 hPa
Visibility 10 km or more
Few clouds at a height of 4000 ft

METAR: SBCC 182100Z 31004KT 9999 FEW040 30/15 Q1010

Time: 01:14 (04:14 UTC)


TAF: missing

Weather observations and forecasts of more than 4000 airports (METAR and TAF reports).

The available stations are represented by yellow and red dots on the map.

Hover mouse over dot to see the name of the station.

Then click to see weather observations and forecasts.

To change the map : click on the green buttons with a black cross to zoom in, on the green button with a dash to zoom out, or on the green arrows for adjacent maps.


METAR-TAF: